createdAt,value
2018-05-06T00:01:11.138Z,31.30
2018-05-06T00:03:39.409Z,31.70
2018-05-06T00:06:07.661Z,35.93
2018-05-06T00:08:35.919Z,28.60
2018-05-06T00:11:04.199Z,33.03
2018-05-06T00:13:32.472Z,29.40
2018-05-06T00:16:00.732Z,29.73
2018-05-06T00:18:29.762Z,28.38
2018-05-06T00:20:58.023Z,31.67
2018-05-06T00:23:26.292Z,32.87
2018-05-06T00:25:55.322Z,31.87
2018-05-06T00:28:23.591Z,32.90
2018-05-06T00:30:51.847Z,32.87
2018-05-06T00:33:20.884Z,33.10
2018-05-06T00:35:49.153Z,33.73
2018-05-06T00:38:17.426Z,33.92
2018-05-06T00:40:46.458Z,35.03
2018-05-06T00:43:14.735Z,32.63
2018-05-06T00:45:43.002Z,31.30
2018-05-06T00:48:11.304Z,37.95
2018-05-06T00:50:39.563Z,32.50
2018-05-06T00:53:07.836Z,34.20
2018-05-06T00:55:36.095Z,32.27
2018-05-06T00:58:05.139Z,35.33
2018-05-06T01:00:33.412Z,33.77
2018-05-06T01:03:01.673Z,31.10
2018-05-06T01:05:29.953Z,32.50
2018-05-06T01:07:58.223Z,32.47
2018-05-06T01:10:26.503Z,33.03
2018-05-06T01:12:54.758Z,32.40
2018-05-06T01:15:23.028Z,34.60
2018-05-06T01:17:51.298Z,32.53
2018-05-06T01:20:19.575Z,34.75
2018-05-06T01:22:47.831Z,31.33
2018-05-06T01:25:16.086Z,31.17
2018-05-06T01:27:44.357Z,27.13
2018-05-06T01:30:13.378Z,28.43
2018-05-06T01:32:41.635Z,28.23
2018-05-06T01:35:10.658Z,26.03
2018-05-06T01:37:39.226Z,27.37
2018-05-06T01:40:08.251Z,26.80
2018-05-06T01:42:36.499Z,26.35
2018-05-06T01:45:05.527Z,30.23
2018-05-06T01:47:33.788Z,31.77
2018-05-06T01:50:02.883Z,28.85
2018-05-06T01:52:31.898Z,29.00
2018-05-06T01:55:00.179Z,26.00
2018-05-06T01:57:28.432Z,26.47
2018-05-06T01:59:57.451Z,28.23
2018-05-06T02:02:25.703Z,28.27
2018-05-06T02:04:53.959Z,28.30
2018-05-06T02:07:22.208Z,31.40
2018-05-06T02:09:50.786Z,32.10
2018-05-06T02:12:19.039Z,29.40
2018-05-06T02:14:48.307Z,29.97
2018-05-06T02:17:16.558Z,31.30
2018-05-06T02:19:44.811Z,30.37
2018-05-06T02:22:13.839Z,36.73
2018-05-06T02:24:42.091Z,33.70
2018-05-06T02:27:10.348Z,31.27
2018-05-06T02:29:38.620Z,36.03
2018-05-06T02:32:06.874Z,33.30
2018-05-06T02:34:35.129Z,34.27
2018-05-06T02:37:03.401Z,31.33
2018-05-06T02:39:32.420Z,31.63
2018-05-06T02:42:00.683Z,33.37
2018-05-06T02:44:28.936Z,41.40
2018-05-06T02:46:57.989Z,35.70
2018-05-06T02:49:26.256Z,33.33
2018-05-06T02:51:55.458Z,36.75
2018-05-06T02:54:23.729Z,38.20
2018-05-06T02:56:51.989Z,28.25
2018-05-06T02:59:21.011Z,29.33
2018-05-06T03:01:49.270Z,26.13
2018-05-06T03:04:18.286Z,26.03
2018-05-06T03:06:46.547Z,27.40
2018-05-06T03:09:15.570Z,26.93
2018-05-06T03:11:43.832Z,28.67
2018-05-06T03:14:12.082Z,26.47
2018-05-06T03:16:40.356Z,24.87
2018-05-06T03:19:08.602Z,28.23
2018-05-06T03:21:36.862Z,29.27
2018-05-06T03:24:06.231Z,27.45
2018-05-06T03:26:34.496Z,32.20
2018-05-06T03:29:02.755Z,33.37
2018-05-06T03:31:31.020Z,35.53
2018-05-06T03:33:59.276Z,32.00
2018-05-06T03:36:28.304Z,34.37
2018-05-06T03:38:56.554Z,36.50
2018-05-06T03:41:25.597Z,36.03
2018-05-06T03:43:53.855Z,35.40
2018-05-06T03:46:22.132Z,39.22
2018-05-06T03:48:50.392Z,33.75
2018-05-06T03:51:19.432Z,31.63
2018-05-06T03:53:47.688Z,33.10
2018-05-06T03:59:58.193Z,35.37
2018-05-06T04:02:39.265Z,30.80
2018-05-06T04:05:07.512Z,34.70
2018-05-06T04:07:35.778Z,37.90
2018-05-06T04:10:04.030Z,37.07
2018-05-06T04:12:32.303Z,36.90
2018-05-06T04:15:01.325Z,38.00
2018-05-06T04:17:30.523Z,40.12
2018-05-06T04:19:58.795Z,37.83
2018-05-06T04:22:27.064Z,40.83
2018-05-06T04:24:56.111Z,38.97
2018-05-06T04:27:24.382Z,39.57
2018-05-06T04:29:52.630Z,37.27
2018-05-06T04:32:20.901Z,38.90
2018-05-06T04:34:49.927Z,40.75
2018-05-06T04:37:18.214Z,37.80
2018-05-06T04:39:46.480Z,39.70
2018-05-06T04:42:14.757Z,35.15
2018-05-06T04:44:43.052Z,41.77
2018-05-06T04:47:11.309Z,43.43
2018-05-06T04:49:40.340Z,47.50
2018-05-06T04:52:10.255Z,39.60
2018-05-06T04:54:38.510Z,40.12
2018-05-06T04:57:06.791Z,41.37
2018-05-06T04:59:36.628Z,40.90
2018-05-06T05:02:04.892Z,40.80
2018-05-06T05:04:33.158Z,37.20
2018-05-06T05:07:02.193Z,40.87
2018-05-06T05:09:30.516Z,40.70
2018-05-06T05:11:58.721Z,36.87
2018-05-06T05:14:27.736Z,37.55
2018-05-06T05:16:56.007Z,37.20
2018-05-06T05:19:24.266Z,38.40
2018-05-06T05:21:53.316Z,36.03
2018-05-06T05:24:21.584Z,35.17
2018-05-06T05:26:49.864Z,37.53
2018-05-06T05:29:18.210Z,30.60
2018-05-06T05:31:46.422Z,32.87
2018-05-06T05:34:14.707Z,30.97
2018-05-06T05:36:42.963Z,33.77
2018-05-06T05:39:12.007Z,28.95
2018-05-06T05:41:40.249Z,32.03
2018-05-06T05:44:08.526Z,33.47
2018-05-06T05:46:37.560Z,28.50
2018-05-06T05:49:05.835Z,30.17
2018-05-06T05:51:34.380Z,29.85
2018-05-06T05:54:03.500Z,31.70
2018-05-06T05:56:31.764Z,29.10
2018-05-06T05:59:00.874Z,29.40
2018-05-06T06:01:29.181Z,27.00
2018-05-06T06:03:58.189Z,30.33
2018-05-06T06:06:26.457Z,32.88
2018-05-06T06:08:54.997Z,33.87
2018-05-06T06:11:23.362Z,31.60
2018-05-06T06:13:52.518Z,28.73
2018-05-06T06:16:20.887Z,31.00
2018-05-06T06:18:49.171Z,30.30
2018-05-06T06:21:17.443Z,33.00
2018-05-06T06:23:46.495Z,32.37
2018-05-06T06:26:14.763Z,41.77
2018-05-06T06:28:43.049Z,38.22
2018-05-06T06:31:11.366Z,41.27
2018-05-06T06:33:39.635Z,41.10
2018-05-06T06:36:07.885Z,39.67
2018-05-06T06:38:36.200Z,39.63
2018-05-06T06:41:04.463Z,40.40
2018-05-06T06:43:32.737Z,40.83
2018-05-06T06:46:00.994Z,42.27
2018-05-06T06:48:29.269Z,41.40
2018-05-06T06:50:57.535Z,50.80
2018-05-06T06:53:25.804Z,46.23
2018-05-06T06:55:54.835Z,40.97
2018-05-06T06:58:23.110Z,40.67
2018-05-06T07:00:51.389Z,46.37
2018-05-06T07:03:19.639Z,45.23
2018-05-06T07:05:48.749Z,42.80
2018-05-06T07:08:16.954Z,48.87
2018-05-06T07:10:45.213Z,49.03
2018-05-06T07:13:13.719Z,56.33
2018-05-06T07:15:42.096Z,48.30
2018-05-06T07:18:10.379Z,48.97
2018-05-06T07:20:38.642Z,49.65
2018-05-06T07:23:06.900Z,47.83
2018-05-06T07:25:35.189Z,41.60
2018-05-06T07:28:04.231Z,46.77
2018-05-06T07:30:32.507Z,46.87
2018-05-06T07:33:00.774Z,42.43
2018-05-06T07:35:29.060Z,45.33
2018-05-06T07:37:57.327Z,41.30
2018-05-06T07:40:25.590Z,40.20
2018-05-06T07:42:54.627Z,42.70
2018-05-06T07:45:22.895Z,42.73
2018-05-06T07:47:51.159Z,43.70
2018-05-06T07:50:20.198Z,41.57
2018-05-06T07:52:48.458Z,44.45
2018-05-06T07:55:16.742Z,37.90
2018-05-06T07:57:44.990Z,32.07
2018-05-06T08:00:14.020Z,28.73
2018-05-06T08:02:42.297Z,29.90
2018-05-06T08:05:11.236Z,32.06
2018-05-06T08:07:39.500Z,26.62
2018-05-06T08:10:07.772Z,33.60
2018-05-06T08:12:36.035Z,30.10
2018-05-06T08:15:04.304Z,29.10
2018-05-06T08:17:32.580Z,29.58
2018-05-06T08:20:01.624Z,28.03
2018-05-06T08:22:29.950Z,27.13
2018-05-06T08:24:58.155Z,28.90
2018-05-06T08:27:26.422Z,28.35
2018-05-06T08:29:54.694Z,28.03
2018-05-06T08:32:23.719Z,26.40
2018-05-06T08:34:51.979Z,24.60
2018-05-06T08:37:20.260Z,29.00
2018-05-06T08:39:48.538Z,26.58
2018-05-06T08:42:17.555Z,26.12
2018-05-06T08:44:45.836Z,25.80
2018-05-06T08:47:15.882Z,24.20
2018-05-06T08:49:44.146Z,27.77
2018-05-06T08:52:12.407Z,22.23
2018-05-06T08:54:40.706Z,21.40
2018-05-06T08:57:08.981Z,18.33
2018-05-06T08:59:37.329Z,19.97
2018-05-06T09:02:06.351Z,19.37
2018-05-06T09:04:34.631Z,21.20
2018-05-06T09:07:03.659Z,17.48
2018-05-06T09:09:31.927Z,20.02
2018-05-06T09:12:00.211Z,22.07
2018-05-06T09:14:28.471Z,19.90
2018-05-06T09:16:56.746Z,20.88
2018-05-06T09:19:25.012Z,25.88
2018-05-06T09:21:54.046Z,17.90
2018-05-06T09:24:22.303Z,18.73
2018-05-06T09:26:50.575Z,18.50
2018-05-06T09:29:19.599Z,15.65
2018-05-06T09:31:47.900Z,20.20
2018-05-06T09:34:16.156Z,16.23
2018-05-06T09:36:44.428Z,17.87
2018-05-06T09:39:12.684Z,19.02
2018-05-06T09:41:40.951Z,14.75
2018-05-06T09:44:09.222Z,19.13
2018-05-06T09:46:37.488Z,18.98
2018-05-06T09:49:06.442Z,17.80
2018-05-06T09:51:34.731Z,16.12
2018-05-06T09:54:02.994Z,17.67
2018-05-06T09:56:32.027Z,15.13
2018-05-06T09:59:00.282Z,16.60
2018-05-06T10:01:28.567Z,21.02
2018-05-06T10:03:56.828Z,16.33
2018-05-06T10:06:25.872Z,16.08
2018-05-06T10:08:54.129Z,15.73
2018-05-06T10:11:22.399Z,14.68
2018-05-06T10:13:50.668Z,17.25
2018-05-06T10:16:19.711Z,13.93
2018-05-06T10:18:47.968Z,16.33
2018-05-06T10:21:16.304Z,18.48
2018-05-06T10:23:44.569Z,12.30
2018-05-06T10:26:12.866Z,14.53
2018-05-06T10:28:41.096Z,14.75
2018-05-06T10:31:09.367Z,13.55
2018-05-06T10:33:37.638Z,13.62
2018-05-06T10:36:06.677Z,14.90
2018-05-06T10:38:34.945Z,11.40
2018-05-06T10:41:03.480Z,15.40
2018-05-06T10:43:31.743Z,12.02
2018-05-06T10:46:00.016Z,14.18
2018-05-06T10:48:28.283Z,11.33
2018-05-06T10:50:56.531Z,8.48
2018-05-06T10:53:24.814Z,11.30
2018-05-06T10:55:53.835Z,9.57
2018-05-06T10:58:23.247Z,10.23
2018-05-06T11:00:51.502Z,12.70
2018-05-06T11:03:19.768Z,11.50
2018-05-06T11:05:48.792Z,9.93
2018-05-06T11:08:17.055Z,9.00
2018-05-06T11:10:46.071Z,8.57
2018-05-06T11:13:14.331Z,13.95
2018-05-06T11:15:43.354Z,9.30
2018-05-06T11:18:11.618Z,9.20
2018-05-06T11:20:39.885Z,7.63
2018-05-06T11:23:08.908Z,8.88
2018-05-06T11:25:37.177Z,9.23
2018-05-06T11:28:05.432Z,7.77
2018-05-06T11:30:33.701Z,14.27
2018-05-06T11:33:01.967Z,10.05
2018-05-06T11:35:30.220Z,7.35
2018-05-06T11:37:58.483Z,6.20
2018-05-06T11:40:26.733Z,5.97
2018-05-06T11:42:55.767Z,7.77
2018-05-06T11:45:24.079Z,7.40
2018-05-06T11:47:52.299Z,9.13
2018-05-06T11:50:21.310Z,6.70
2018-05-06T11:52:49.580Z,8.70
2018-05-06T11:55:18.943Z,8.00
2018-05-06T11:57:47.212Z,10.23
2018-05-06T12:00:15.481Z,7.25
2018-05-06T12:02:43.748Z,7.47
2018-05-06T12:05:12.012Z,8.43
2018-05-06T12:07:41.038Z,5.82
2018-05-06T12:10:09.300Z,9.47
2018-05-06T12:12:38.323Z,10.23
2018-05-06T12:15:06.575Z,5.75
2018-05-06T12:17:34.861Z,8.32
2018-05-06T12:20:03.110Z,9.57
2018-05-06T12:22:31.371Z,11.27
2018-05-06T12:24:59.646Z,9.32
2018-05-06T12:27:27.911Z,6.78
2018-05-06T12:29:56.162Z,6.85
2018-05-06T12:32:24.437Z,10.27
2018-05-06T12:34:52.694Z,7.90
2018-05-06T12:37:21.216Z,8.27
2018-05-06T12:39:49.475Z,8.00
2018-05-06T12:42:18.493Z,8.17
2018-05-06T12:44:46.756Z,7.70
2018-05-06T12:47:15.787Z,13.88
2018-05-06T12:49:44.065Z,9.80
2018-05-06T12:52:12.311Z,5.70
2018-05-06T12:54:41.343Z,6.63
2018-05-06T12:57:09.603Z,10.82
2018-05-06T12:59:37.882Z,9.02
2018-05-06T13:02:06.145Z,8.77
2018-05-06T13:04:35.188Z,7.65
2018-05-06T13:07:03.448Z,7.62
2018-05-06T13:09:31.715Z,7.60
2018-05-06T13:12:00.743Z,7.70
2018-05-06T13:14:29.014Z,4.83
2018-05-06T13:16:57.269Z,5.75
2018-05-06T13:19:26.291Z,4.85
2018-05-06T13:21:54.546Z,9.23
2018-05-06T13:24:23.571Z,5.70
2018-05-06T13:26:51.815Z,6.93
2018-05-06T13:29:20.758Z,8.98
2018-05-06T13:31:49.011Z,10.68
2018-05-06T13:34:17.277Z,8.77
2018-05-06T13:36:46.304Z,5.30
2018-05-06T13:39:14.567Z,8.45
2018-05-06T13:41:43.595Z,6.00
2018-05-06T13:44:11.931Z,7.10
2018-05-06T13:46:40.948Z,7.87
2018-05-06T13:49:09.206Z,8.52
2018-05-06T13:51:38.226Z,6.57
2018-05-06T13:54:06.495Z,6.28
2018-05-06T13:56:35.519Z,5.10
2018-05-06T13:59:03.785Z,4.07
2018-05-06T14:01:32.060Z,5.22
2018-05-06T14:04:00.309Z,7.18
2018-05-06T14:06:29.391Z,5.68
2018-05-06T14:08:57.667Z,6.12
2018-05-06T14:11:25.915Z,8.00
2018-05-06T14:13:54.183Z,6.10
2018-05-06T14:16:22.440Z,10.13
2018-05-06T14:18:50.723Z,5.10
2018-05-06T14:21:18.980Z,6.50
2018-05-06T14:23:47.231Z,4.47
2018-05-06T14:26:15.603Z,6.80
2018-05-06T14:28:43.862Z,14.97
2018-05-06T14:31:12.989Z,8.18
2018-05-06T14:33:41.246Z,6.97
2018-05-06T14:36:10.283Z,8.40
2018-05-06T14:38:38.532Z,6.17
2018-05-06T14:41:06.807Z,7.18
2018-05-06T14:43:35.837Z,8.18
2018-05-06T14:46:04.088Z,4.65
2018-05-06T14:48:32.371Z,5.77
2018-05-06T14:51:01.377Z,7.00
2018-05-06T14:53:31.102Z,9.38
2018-05-06T14:55:59.421Z,7.03
2018-05-06T14:58:27.684Z,5.97
2018-05-06T15:00:55.947Z,5.03
2018-05-06T15:03:24.212Z,8.95
2018-05-06T15:05:52.590Z,5.18
2018-05-06T15:08:20.854Z,7.80
2018-05-06T15:10:49.885Z,6.50
2018-05-06T15:13:18.146Z,5.12
2018-05-06T15:15:46.441Z,9.10
2018-05-06T15:18:15.499Z,5.17
2018-05-06T15:20:43.736Z,7.13
2018-05-06T15:23:12.000Z,8.52
2018-05-06T15:25:40.269Z,5.82
2018-05-06T15:28:08.523Z,5.07
2018-05-06T15:30:36.771Z,6.12
2018-05-06T15:33:05.047Z,5.45
2018-05-06T15:35:33.314Z,6.93
2018-05-06T15:38:01.568Z,5.37
2018-05-06T15:40:29.850Z,6.13
2018-05-06T15:42:58.098Z,7.65
2018-05-06T15:45:26.375Z,4.78
2018-05-06T15:47:54.640Z,6.07
2018-05-06T15:50:22.995Z,9.20
2018-05-06T15:52:51.180Z,7.57
2018-05-06T15:55:19.435Z,6.15
2018-05-06T15:57:47.714Z,6.27
2018-05-06T16:00:16.056Z,5.90
2018-05-06T16:03:04.373Z,6.37
2018-05-06T16:05:32.626Z,5.80
2018-05-06T16:08:00.894Z,6.83
2018-05-06T16:10:29.167Z,4.25
2018-05-06T16:12:57.432Z,6.47
2018-05-06T16:15:25.674Z,4.53
2018-05-06T16:17:53.935Z,4.97
2018-05-06T16:20:22.408Z,6.06
2018-05-06T16:22:50.703Z,7.65
2018-05-06T16:25:19.046Z,7.62
2018-05-06T16:27:48.074Z,4.67
2018-05-06T16:30:16.323Z,8.98
2018-05-06T16:32:45.354Z,8.33
2018-05-06T16:35:13.615Z,6.18
2018-05-06T16:37:42.717Z,12.07
2018-05-06T16:40:10.974Z,7.50
2018-05-06T16:42:39.236Z,8.68
2018-05-06T16:45:07.497Z,5.68
2018-05-06T16:47:35.764Z,5.93
2018-05-06T16:50:04.017Z,5.20
2018-05-06T16:52:32.291Z,5.43
2018-05-06T16:55:01.324Z,6.60
2018-05-06T16:57:29.601Z,5.60
2018-05-06T16:59:57.857Z,6.60
2018-05-06T17:02:27.689Z,5.52
2018-05-06T17:04:55.965Z,7.50
2018-05-06T17:07:24.239Z,7.07
2018-05-06T17:09:52.490Z,7.40
2018-05-06T17:12:20.760Z,5.20
2018-05-06T17:14:49.018Z,5.62
2018-05-06T17:17:17.275Z,6.97
2018-05-06T17:19:45.587Z,4.20
2018-05-06T17:22:14.558Z,5.15
2018-05-06T17:24:42.820Z,4.07
2018-05-06T17:27:11.072Z,8.40
2018-05-06T17:29:39.344Z,3.23
2018-05-06T17:32:07.591Z,4.97
2018-05-06T17:34:36.342Z,7.06
2018-05-06T17:37:05.372Z,4.00
2018-05-06T17:39:33.755Z,4.47
2018-05-06T17:42:02.007Z,5.30
2018-05-06T17:44:30.278Z,7.25
2018-05-06T17:46:59.302Z,7.30
2018-05-06T17:49:27.564Z,5.80
2018-05-06T17:51:56.586Z,5.73
2018-05-06T17:54:26.086Z,5.80
2018-05-06T17:56:54.352Z,5.22
2018-05-06T17:59:22.624Z,4.35
2018-05-06T18:01:51.647Z,7.67
2018-05-06T18:04:19.915Z,6.23
2018-05-06T18:06:48.474Z,6.57
2018-05-06T18:09:16.787Z,4.03
2018-05-06T18:11:45.064Z,7.47
2018-05-06T18:14:13.396Z,4.50
2018-05-06T18:16:41.658Z,4.47
2018-05-06T18:19:09.921Z,5.97
2018-05-06T18:21:38.184Z,7.17
2018-05-06T18:24:07.287Z,8.00
2018-05-06T18:26:35.473Z,3.40
2018-05-06T18:29:03.791Z,5.40
2018-05-06T18:31:32.018Z,12.10
2018-05-06T18:34:01.250Z,4.47
2018-05-06T18:36:29.504Z,8.13
2018-05-06T18:38:58.611Z,4.17
2018-05-06T18:41:26.879Z,5.30
2018-05-06T18:43:55.902Z,5.40
2018-05-06T18:46:24.203Z,4.20
2018-05-06T18:48:52.447Z,4.40
2018-05-06T18:51:20.716Z,5.37
2018-05-06T18:53:49.735Z,4.73
2018-05-06T18:56:18.015Z,7.03
2018-05-06T18:58:46.272Z,7.05
2018-05-06T19:01:15.309Z,3.80
2018-05-06T19:03:43.567Z,6.33
2018-05-06T19:06:11.835Z,8.37
2018-05-06T19:08:40.867Z,3.87
2018-05-06T19:11:09.139Z,10.70
2018-05-06T19:13:37.402Z,4.07
2018-05-06T19:16:05.670Z,5.07
2018-05-06T19:18:34.688Z,4.50
2018-05-06T19:21:02.951Z,3.80
2018-05-06T19:23:31.971Z,6.27
2018-05-06T19:26:00.255Z,5.13
2018-05-06T19:28:28.515Z,3.60
2018-05-06T19:30:57.542Z,4.60
2018-05-06T19:33:25.801Z,4.25
2018-05-06T19:35:56.083Z,6.90
2018-05-06T19:38:24.340Z,3.73
2018-05-06T19:40:52.613Z,5.20
2018-05-06T19:43:20.863Z,4.13
2018-05-06T19:45:51.138Z,6.30
2018-05-06T19:48:19.651Z,4.10
2018-05-06T19:50:47.910Z,6.03
2018-05-06T19:53:16.174Z,5.50
2018-05-06T19:55:45.696Z,4.73
2018-05-06T19:58:14.046Z,5.40
2018-05-06T20:00:42.315Z,3.10
2018-05-06T20:03:10.559Z,5.77
2018-05-06T20:05:39.138Z,5.50
2018-05-06T20:08:07.398Z,6.47
2018-05-06T20:10:35.670Z,3.25
2018-05-06T20:13:03.939Z,3.70
2018-05-06T20:15:32.219Z,5.47
2018-05-06T20:18:00.475Z,4.97
2018-05-06T20:20:29.534Z,3.00
2018-05-06T20:22:57.790Z,2.63
2018-05-06T20:25:26.066Z,3.07
2018-05-06T20:27:54.347Z,3.40
2018-05-06T20:30:22.620Z,4.07
2018-05-06T20:32:50.886Z,3.87
2018-05-06T20:35:19.152Z,3.93
2018-05-06T20:37:48.167Z,6.77
2018-05-06T20:40:16.443Z,4.90
2018-05-06T20:42:44.699Z,4.03
2018-05-06T20:45:12.968Z,2.17
2018-05-06T20:47:41.236Z,6.30
2018-05-06T20:50:09.489Z,4.57
2018-05-06T20:52:37.757Z,5.03
2018-05-06T20:55:06.024Z,4.73
2018-05-06T20:57:34.295Z,6.50
2018-05-06T21:00:03.308Z,6.30
2018-05-06T21:02:31.571Z,3.47
2018-05-06T21:05:00.608Z,2.22
2018-05-06T21:07:28.886Z,4.30
2018-05-06T21:09:57.142Z,4.73
2018-05-06T21:12:25.426Z,3.35
2018-05-06T21:14:53.678Z,4.15
2018-05-06T21:17:21.944Z,7.10
2018-05-06T21:19:50.202Z,3.70
2018-05-06T21:22:18.468Z,3.63
2018-05-06T21:24:46.732Z,3.73
2018-05-06T21:27:15.746Z,3.47
2018-05-06T21:29:43.998Z,2.40
2018-05-06T21:32:13.044Z,2.60
2018-05-06T21:34:41.327Z,5.30
2018-05-06T21:37:10.635Z,8.75
2018-05-06T21:39:38.913Z,3.60
2018-05-06T21:42:07.161Z,3.90
2018-05-06T21:44:35.411Z,7.30
2018-05-06T21:47:04.448Z,3.87
2018-05-06T21:49:32.706Z,3.23
2018-05-06T21:52:01.750Z,2.83
2018-05-06T21:54:30.074Z,6.37
2018-05-06T21:56:58.287Z,4.35
2018-05-06T21:59:26.535Z,4.33
2018-05-06T22:01:55.567Z,5.95
2018-05-06T22:04:23.819Z,2.97
2018-05-06T22:06:52.849Z,5.68
2018-05-06T22:09:21.119Z,5.97
2018-05-06T22:11:49.363Z,3.87
2018-05-06T22:14:18.393Z,3.50
2018-05-06T22:16:46.680Z,3.13
2018-05-06T22:19:14.930Z,5.10
2018-05-06T22:21:43.972Z,3.97
2018-05-06T22:24:12.259Z,3.53
2018-05-06T22:26:40.514Z,5.70
2018-05-06T22:29:08.776Z,5.97
2018-05-06T22:31:37.816Z,3.67
2018-05-06T22:34:06.094Z,4.17
2018-05-06T22:36:34.360Z,4.83
2018-05-06T22:39:02.629Z,3.07
2018-05-06T22:41:30.952Z,4.47
2018-05-06T22:43:59.143Z,4.43
2018-05-06T22:46:27.435Z,4.40
2018-05-06T22:48:55.705Z,12.87
2018-05-06T22:51:23.960Z,7.97
2018-05-06T22:53:52.292Z,3.17
2018-05-06T22:56:20.542Z,3.37
2018-05-06T22:58:48.887Z,5.37
2018-05-06T23:01:17.146Z,3.70
2018-05-06T23:03:45.424Z,3.07
2018-05-06T23:06:14.459Z,5.20
2018-05-06T23:08:42.731Z,4.77
2018-05-06T23:11:11.058Z,6.07
2018-05-06T23:13:40.007Z,8.80
2018-05-06T23:16:08.267Z,4.10
2018-05-06T23:18:36.549Z,6.43
2018-05-06T23:21:04.811Z,4.87
2018-05-06T23:23:33.848Z,4.73
2018-05-06T23:26:02.115Z,4.60
2018-05-06T23:28:30.386Z,4.33
2018-05-06T23:30:58.648Z,4.10
2018-05-06T23:33:27.687Z,4.13
2018-05-06T23:35:56.001Z,3.40
2018-05-06T23:38:24.219Z,4.13
2018-05-06T23:40:53.248Z,3.40
2018-05-06T23:43:21.525Z,3.93
2018-05-06T23:45:49.770Z,3.55
2018-05-06T23:48:18.811Z,5.80
2018-05-06T23:50:47.067Z,4.63
2018-05-06T23:53:15.331Z,5.90
2018-05-06T23:55:44.350Z,3.77
2018-05-06T23:58:12.620Z,4.57
